METAR Data
IDs: Format: Raw Decoded Include TAF

Data at: 0937 UTC 13 Aug 2022

EHAM 130925Z 11007KT 060V140 CAVOK 27/11 Q1017 NOSIG